Time;durP1;ratioP1;P1;durP2;ratioP2;P2;SDS_P1;SDS_P2;PMS_P1;PMS_P2;Temp;Humidity;BMP_temperature;BMP_pressure;BME280_temperature;BME280_humidity;BME280_pressure;Samples;Min_cycle;Max_cycle;Signal;HPM_P1;HPM_P2
2023/06/05 00:00:40;;;;;;;22.70;21.40;;;;;;;;;;5090862;28;20494;-77
2023/06/05 00:03:07;;;;;;;22.63;21.13;;;;;;;;;;5090842;28;20422;-78
2023/06/05 00:05:34;;;;;;;22.93;21.63;;;;;;;;;;5085344;28;20443;-78
2023/06/05 00:08:01;;;;;;;23.13;21.73;;;;;;;;;;5075944;28;20481;-79
2023/06/05 00:10:30;;;;;;;23.37;21.87;;;;;;;;;;5075176;28;20476;-77
2023/06/05 00:12:57;;;;;;;23.20;21.50;;;;;;;;;;5075064;28;20871;-78
2023/06/05 00:15:24;;;;;;;23.20;21.80;;;;;;;;;;5075295;28;20474;-78
2023/06/05 00:17:51;;;;;;;24.10;22.20;;;;;;;;;;5075335;28;20457;-78
2023/06/05 00:20:18;;;;;;;22.60;21.30;;;;;;;;;;5075150;28;20986;-78
2023/06/05 00:22:47;;;;;;;23.43;21.80;;;;;;;;;;5075407;28;20864;-78
2023/06/05 00:25:14;;;;;;;23.63;22.23;;;;;;;;;;5075180;28;20518;-79
2023/06/05 00:27:42;;;;;;;23.30;21.80;;;;;;;;;;5074610;28;20477;-77
2023/06/05 00:30:10;;;;;;;23.87;22.40;;;;;;;;;;5074422;28;20520;-77
2023/06/05 00:32:37;;;;;;;23.23;21.83;;;;;;;;;;5074978;28;20491;-79
2023/06/05 00:35:04;;;;;;;23.37;21.90;;;;;;;;;;5075115;28;20485;-78
2023/06/05 00:37:33;;;;;;;24.80;22.60;;;;;;;;;;5074466;28;20451;-78
2023/06/05 00:40:00;;;;;;;23.50;22.10;;;;;;;;;;5075530;28;20466;-78
2023/06/05 00:42:27;;;;;;;23.10;21.90;;;;;;;;;;5075094;28;20467;-78
2023/06/05 00:44:55;;;;;;;23.60;22.10;;;;;;;;;;5075889;28;20454;-78
2023/06/05 00:47:22;;;;;;;23.57;22.27;;;;;;;;;;5074381;28;20451;-78
2023/06/05 00:49:49;;;;;;;23.20;21.80;;;;;;;;;;5075249;28;20486;-78
2023/06/05 00:52:17;;;;;;;24.03;22.47;;;;;;;;;;5075447;28;20460;-78
2023/06/05 00:54:44;;;;;;;23.70;22.30;;;;;;;;;;5075258;28;20468;-78
2023/06/05 00:57:12;;;;;;;22.63;21.33;;;;;;;;;;5074116;28;20988;-76
2023/06/05 00:59:40;;;;;;;23.53;22.23;;;;;;;;;;5074246;28;20461;-78
2023/06/05 01:02:09;;;;;;;22.93;21.43;;;;;;;;;;5075026;28;20438;-78
2023/06/05 01:04:37;;;;;;;24.10;22.40;;;;;;;;;;5074808;28;21119;-78
2023/06/05 01:07:05;;;;;;;23.27;21.87;;;;;;;;;;5074320;28;20830;-78
2023/06/05 01:09:32;;;;;;;24.10;22.20;;;;;;;;;;5074041;28;20493;-78
2023/06/05 01:12:00;;;;;;;24.50;22.87;;;;;;;;;;5074672;28;20434;-78
2023/06/05 01:14:30;;;;;;;24.23;22.63;;;;;;;;;;5074572;28;20468;-78
2023/06/05 01:17:00;;;;;;;23.80;22.40;;;;;;;;;;5074264;28;20401;-77
2023/06/05 01:19:31;;;;;;;23.37;22.00;;;;;;;;;;5074400;28;20966;-78
2023/06/05 01:21:58;;;;;;;22.10;20.90;;;;;;;;;;5074374;28;20770;-78
2023/06/05 01:24:27;;;;;;;22.60;21.40;;;;;;;;;;5073974;28;20455;-77
2023/06/05 01:27:00;;;;;;;23.57;22.17;;;;;;;;;;5073700;28;20438;-78
2023/06/05 01:29:30;;;;;;;24.20;22.70;;;;;;;;;;5073814;28;20514;-77
2023/06/05 01:31:59;;;;;;;22.90;21.60;;;;;;;;;;5074414;28;20438;-78
2023/06/05 01:34:27;;;;;;;22.77;21.57;;;;;;;;;;5074143;28;20527;-79
2023/06/05 01:36:54;;;;;;;23.17;21.67;;;;;;;;;;5073421;28;20504;-77
2023/06/05 01:39:21;;;;;;;23.37;22.00;;;;;;;;;;5073001;28;20511;-78
2023/06/05 01:41:50;;;;;;;23.30;22.00;;;;;;;;;;5073346;28;20457;-77
2023/06/05 01:44:18;;;;;;;23.60;22.10;;;;;;;;;;5073897;28;20454;-77
2023/06/05 01:46:45;;;;;;;24.20;22.30;;;;;;;;;;5073332;28;20485;-77
2023/06/05 01:49:12;;;;;;;23.20;21.77;;;;;;;;;;5073097;28;20485;-77
2023/06/05 01:51:39;;;;;;;24.17;22.77;;;;;;;;;;5073955;28;20491;-77
2023/06/05 01:54:07;;;;;;;25.27;23.50;;;;;;;;;;5073454;28;20968;-77
2023/06/05 01:56:36;;;;;;;24.67;22.97;;;;;;;;;;5073452;28;20557;-77
2023/06/05 01:59:06;;;;;;;25.00;23.50;;;;;;;;;;5077013;28;20432;-77
2023/06/05 02:01:34;;;;;;;24.30;22.77;;;;;;;;;;5076590;28;20873;-78
2023/06/05 02:04:05;;;;;;;24.03;22.33;;;;;;;;;;5077981;28;20474;-78
2023/06/05 02:06:43;;;;;;;23.93;22.47;;;;;;;;;;5077197;28;20798;-78
2023/06/05 02:09:12;;;;;;;23.63;22.13;;;;;;;;;;5077334;28;20531;-77
2023/06/05 02:11:39;;;;;;;23.93;22.30;;;;;;;;;;5076430;28;20467;-78
2023/06/05 02:14:08;;;;;;;23.60;22.30;;;;;;;;;;5077507;28;20435;-76
2023/06/05 02:16:37;;;;;;;24.50;23.00;;;;;;;;;;5076944;28;20939;-78
2023/06/05 02:19:04;;;;;;;24.43;22.83;;;;;;;;;;5077249;28;20802;-77
2023/06/05 02:21:33;;;;;;;23.90;22.50;;;;;;;;;;5076443;28;20890;-78
2023/06/05 02:24:00;;;;;;;23.57;22.17;;;;;;;;;;5077989;28;20765;-77
2023/06/05 02:26:27;;;;;;;23.70;22.20;;;;;;;;;;5076414;28;20461;-77
2023/06/05 02:28:54;;;;;;;23.60;22.30;;;;;;;;;;5076465;28;20967;-77
2023/06/05 02:31:25;;;;;;;23.43;22.10;;;;;;;;;;5076896;28;20495;-77
2023/06/05 02:33:52;;;;;;;23.87;22.27;;;;;;;;;;5076032;28;20433;-77
2023/06/05 02:36:19;;;;;;;24.30;22.73;;;;;;;;;;5076455;28;20500;-77
2023/06/05 02:38:49;;;;;;;24.33;22.70;;;;;;;;;;5076651;28;20457;-77
2023/06/05 02:41:16;;;;;;;23.40;22.00;;;;;;;;;;5076481;28;20473;-77
2023/06/05 02:43:43;;;;;;;24.60;22.90;;;;;;;;;;5075969;28;20461;-77
2023/06/05 02:46:10;;;;;;;24.90;23.30;;;;;;;;;;5075962;28;20499;-78
2023/06/05 02:48:39;;;;;;;24.47;22.97;;;;;;;;;;5076482;28;20814;-77
2023/06/05 02:51:06;;;;;;;24.53;23.03;;;;;;;;;;5076508;28;20474;-78
2023/06/05 02:53:33;;;;;;;25.43;23.60;;;;;;;;;;5076477;28;20446;-77
2023/06/05 02:56:01;;;;;;;24.20;22.60;;;;;;;;;;5075981;28;20449;-77
2023/06/05 02:58:29;;;;;;;23.80;22.30;;;;;;;;;;5076592;28;20502;-77
2023/06/05 03:01:01;;;;;;;23.87;22.23;;;;;;;;;;5075327;28;20540;-77
2023/06/05 03:03:29;;;;;;;23.00;21.70;;;;;;;;;;5076185;28;20409;-77
2023/06/05 03:06:01;;;;;;;24.57;23.00;;;;;;;;;;5075702;28;20483;-77
2023/06/05 03:08:28;;;;;;;24.57;22.87;;;;;;;;;;5076572;28;20429;-78
2023/06/05 03:10:55;;;;;;;24.73;23.17;;;;;;;;;;5075259;28;20553;-77
2023/06/05 03:13:22;;;;;;;24.10;22.67;;;;;;;;;;5075404;28;20465;-77
2023/06/05 03:15:53;;;;;;;22.20;20.80;;;;;;;;;;5075454;28;20503;-78
2023/06/05 03:18:21;;;;;;;23.67;22.27;;;;;;;;;;5075697;28;20405;-77
2023/06/05 03:20:49;;;;;;;23.70;22.20;;;;;;;;;;5075343;28;20462;-75
2023/06/05 03:23:18;;;;;;;24.20;22.70;;;;;;;;;;5074995;28;20447;-76
2023/06/05 03:25:45;;;;;;;25.87;24.00;;;;;;;;;;5074677;28;20512;-75
2023/06/05 03:28:12;;;;;;;24.87;23.20;;;;;;;;;;5075125;28;20461;-74
2023/06/05 03:30:39;;;;;;;23.80;22.30;;;;;;;;;;5074157;28;20493;-75
2023/06/05 03:33:07;;;;;;;24.50;22.73;;;;;;;;;;5075000;28;20463;-75
2023/06/05 03:35:34;;;;;;;24.77;23.17;;;;;;;;;;5074016;28;20460;-75
2023/06/05 03:38:01;;;;;;;23.70;22.20;;;;;;;;;;5074550;28;20519;-74
2023/06/05 03:40:30;;;;;;;24.33;22.63;;;;;;;;;;5073752;28;20846;-75
2023/06/05 03:42:57;;;;;;;23.80;22.30;;;;;;;;;;5074650;28;20540;-74
2023/06/05 03:45:26;;;;;;;24.53;22.93;;;;;;;;;;5074674;28;20516;-75
2023/06/05 03:47:53;;;;;;;24.97;23.37;;;;;;;;;;5074227;28;20457;-75
2023/06/05 03:50:21;;;;;;;24.50;22.80;;;;;;;;;;5073911;28;20501;-75
2023/06/05 03:52:52;;;;;;;24.53;22.80;;;;;;;;;;5074096;28;20794;-74
2023/06/05 03:55:20;;;;;;;23.17;21.77;;;;;;;;;;5074291;28;20931;-75
2023/06/05 03:57:48;;;;;;;23.97;22.50;;;;;;;;;;5074087;28;20775;-75
2023/06/05 04:00:16;;;;;;;23.97;22.47;;;;;;;;;;5074116;28;20833;-74
2023/06/05 04:02:43;;;;;;;24.20;22.60;;;;;;;;;;5073758;28;20501;-75
2023/06/05 04:05:12;;;;;;;23.50;21.93;;;;;;;;;;5074131;28;20448;-75
2023/06/05 04:07:39;;;;;;;24.00;22.30;;;;;;;;;;5073744;28;20430;-75
2023/06/05 04:10:07;;;;;;;23.77;22.10;;;;;;;;;;5073616;28;20496;-75
2023/06/05 04:12:34;;;;;;;24.70;22.90;;;;;;;;;;5074181;28;20438;-75
2023/06/05 04:15:02;;;;;;;22.60;21.20;;;;;;;;;;5073731;28;20525;-76
2023/06/05 04:17:30;;;;;;;25.30;23.50;;;;;;;;;;5073522;28;20512;-76
2023/06/05 04:19:57;;;;;;;24.90;23.13;;;;;;;;;;5073838;28;20481;-75
2023/06/05 04:22:23;;;;;;;23.40;21.80;;;;;;;;;;5073305;28;20453;-76
2023/06/05 04:24:50;;;;;;;23.47;21.97;;;;;;;;;;5074239;28;20499;-75
2023/06/05 04:27:18;;;;;;;24.17;22.57;;;;;;;;;;5073465;28;20472;-76
2023/06/05 04:29:45;;;;;;;24.90;23.20;;;;;;;;;;5072856;28;20584;-76
2023/06/05 04:32:16;;;;;;;23.60;22.10;;;;;;;;;;5073495;28;20450;-76
2023/06/05 04:34:43;;;;;;;23.97;22.23;;;;;;;;;;5073769;28;20826;-76
2023/06/05 04:37:10;;;;;;;24.40;22.67;;;;;;;;;;5073026;28;20445;-76
2023/06/05 04:39:38;;;;;;;23.40;21.90;;;;;;;;;;5072857;28;20957;-76
2023/06/05 04:42:05;;;;;;;24.10;22.57;;;;;;;;;;5072596;28;20466;-76
2023/06/05 04:44:32;;;;;;;24.13;22.57;;;;;;;;;;5073614;28;20457;-76
2023/06/05 04:47:00;;;;;;;24.10;22.50;;;;;;;;;;5072822;28;20779;-76
2023/06/05 04:49:28;;;;;;;24.87;23.10;;;;;;;;;;5073201;28;20577;-75
2023/06/05 04:51:56;;;;;;;25.07;23.47;;;;;;;;;;5072951;28;20436;-76
2023/06/05 04:54:23;;;;;;;25.23;23.73;;;;;;;;;;5073478;28;20437;-76
2023/06/05 04:56:51;;;;;;;24.37;22.80;;;;;;;;;;5072762;28;20497;-75
2023/06/05 04:59:18;;;;;;;24.93;23.17;;;;;;;;;;5073319;28;20447;-75
2023/06/05 05:01:45;;;;;;;24.60;22.90;;;;;;;;;;5071638;28;20461;-76
2023/06/05 05:04:12;;;;;;;24.90;22.97;;;;;;;;;;5073461;28;20787;-75
2023/06/05 05:06:47;;;;;;;23.93;22.33;;;;;;;;;;5072096;28;20442;-77
2023/06/05 05:09:14;;;;;;;23.57;22.07;;;;;;;;;;5073097;28;20440;-76
2023/06/05 05:11:41;;;;;;;24.17;22.60;;;;;;;;;;5073188;28;20445;-77
2023/06/05 05:14:08;;;;;;;24.50;22.90;;;;;;;;;;5073423;28;20789;-76
2023/06/05 05:16:35;;;;;;;26.07;23.80;;;;;;;;;;5072403;28;20500;-75
2023/06/05 05:19:02;;;;;;;23.97;22.37;;;;;;;;;;5072229;28;20853;-76
2023/06/05 05:21:29;;;;;;;24.20;22.60;;;;;;;;;;5072859;28;20463;-76
2023/06/05 05:23:58;;;;;;;23.50;22.10;;;;;;;;;;5073174;28;20446;-76
2023/06/05 05:26:25;;;;;;;23.87;22.27;;;;;;;;;;5072212;28;20925;-76
2023/06/05 05:28:52;;;;;;;23.83;22.13;;;;;;;;;;5073078;28;20549;-76
2023/06/05 05:31:19;;;;;;;23.50;21.90;;;;;;;;;;5072020;28;20495;-76
2023/06/05 05:33:46;;;;;;;24.20;22.50;;;;;;;;;;5072533;28;20455;-76
2023/06/05 05:36:14;;;;;;;24.60;23.00;;;;;;;;;;5071864;28;21022;-76
2023/06/05 05:38:41;;;;;;;24.20;22.60;;;;;;;;;;5072650;28;20462;-76
2023/06/05 05:41:09;;;;;;;24.00;22.40;;;;;;;;;;5071923;28;20510;-76
2023/06/05 05:43:36;;;;;;;23.53;22.13;;;;;;;;;;5072542;28;20521;-75
2023/06/05 05:46:03;;;;;;;25.80;23.90;;;;;;;;;;5072072;28;20869;-75
2023/06/05 05:48:31;;;;;;;24.60;23.00;;;;;;;;;;5072683;28;20447;-75
2023/06/05 05:50:57;;;;;;;23.90;22.40;;;;;;;;;;5072135;28;20491;-76
2023/06/05 05:53:25;;;;;;;23.93;22.43;;;;;;;;;;5072479;28;20430;-76
2023/06/05 05:55:52;;;;;;;25.17;23.57;;;;;;;;;;5071575;28;20930;-77
2023/06/05 05:58:20;;;;;;;24.37;22.77;;;;;;;;;;5072655;28;20858;-75
2023/06/05 06:00:47;;;;;;;24.13;22.60;;;;;;;;;;5072290;28;20527;-76
2023/06/05 06:03:14;;;;;;;24.03;22.43;;;;;;;;;;5071468;28;20581;-76
2023/06/05 06:05:41;;;;;;;23.17;21.77;;;;;;;;;;5071487;28;20451;-76
2023/06/05 06:08:08;;;;;;;24.20;22.60;;;;;;;;;;5072333;28;20454;-76
2023/06/05 06:10:36;;;;;;;22.87;21.47;;;;;;;;;;5072646;28;20473;-79
2023/06/05 06:13:04;;;;;;;24.57;23.10;;;;;;;;;;5072429;28;20485;-76
2023/06/05 06:15:32;;;;;;;23.77;22.00;;;;;;;;;;5072515;28;20450;-76
2023/06/05 06:18:02;;;;;;;24.23;22.73;;;;;;;;;;5072329;28;20504;-78
2023/06/05 06:20:29;;;;;;;23.97;22.23;;;;;;;;;;5072121;28;20461;-75
2023/06/05 06:22:56;;;;;;;23.17;21.70;;;;;;;;;;5072369;28;20504;-77
2023/06/05 06:25:25;;;;;;;22.93;21.47;;;;;;;;;;5072411;28;20451;-76
2023/06/05 06:27:53;;;;;;;23.03;21.50;;;;;;;;;;5071710;28;20935;-76
2023/06/05 06:30:21;;;;;;;23.27;21.87;;;;;;;;;;5071000;28;20483;-75
2023/06/05 06:32:49;;;;;;;22.47;21.17;;;;;;;;;;5072010;28;20543;-76
2023/06/05 06:35:16;;;;;;;22.70;21.40;;;;;;;;;;5072233;28;20935;-76
2023/06/05 06:37:44;;;;;;;23.10;21.50;;;;;;;;;;5071666;28;20436;-75
2023/06/05 06:40:11;;;;;;;23.73;21.73;;;;;;;;;;5073380;28;20496;-79
2023/06/05 06:42:39;;;;;;;22.83;21.33;;;;;;;;;;5071969;28;20456;-78
2023/06/05 06:45:06;;;;;;;23.70;22.10;;;;;;;;;;5054306;28;20442;-80
2023/06/05 06:47:33;;;;;;;24.10;22.20;;;;;;;;;;5056504;28;20506;-80
2023/06/05 06:50:01;;;;;;;23.30;21.80;;;;;;;;;;5056280;28;20491;-78
2023/06/05 06:52:28;;;;;;;23.17;21.50;;;;;;;;;;5056412;28;20458;-79
2023/06/05 06:54:56;;;;;;;23.40;21.90;;;;;;;;;;5056039;28;20470;-79
2023/06/05 06:57:23;;;;;;;23.77;22.47;;;;;;;;;;5057124;28;20455;-77
2023/06/05 06:59:50;;;;;;;22.57;21.07;;;;;;;;;;5056950;28;20969;-78
2023/06/05 07:02:17;;;;;;;23.90;22.50;;;;;;;;;;5062925;28;20455;-84
2023/06/05 07:04:45;;;;;;;23.30;22.00;;;;;;;;;;5057897;28;20932;-79
2023/06/05 07:07:15;;;;;;;23.60;22.10;;;;;;;;;;5055589;28;20532;-78
2023/06/05 07:09:42;;;;;;;24.10;22.70;;;;;;;;;;5061340;28;20534;-79
2023/06/05 07:12:10;;;;;;;24.43;22.97;;;;;;;;;;5056947;28;20522;-79
2023/06/05 07:14:38;;;;;;;25.10;23.40;;;;;;;;;;5056274;28;20928;-77
2023/06/05 07:17:05;;;;;;;24.00;22.40;;;;;;;;;;5055450;28;20504;-74
2023/06/05 07:19:33;;;;;;;23.23;22.00;;;;;;;;;;5055475;28;20533;-76
2023/06/05 07:22:01;;;;;;;23.90;22.43;;;;;;;;;;5055870;28;20445;-74
2023/06/05 07:24:30;;;;;;;24.00;22.57;;;;;;;;;;5054793;28;20449;-74
2023/06/05 07:26:58;;;;;;;23.93;22.53;;;;;;;;;;5054755;28;20482;-74
2023/06/05 07:29:25;;;;;;;23.93;22.40;;;;;;;;;;5054757;28;20503;-76
2023/06/05 07:31:52;;;;;;;25.03;23.63;;;;;;;;;;5054716;28;20483;-76
2023/06/05 07:34:20;;;;;;;24.50;23.00;;;;;;;;;;5055482;28;20578;-75
2023/06/05 07:36:48;;;;;;;24.10;22.70;;;;;;;;;;5054301;28;20498;-75
2023/06/05 07:39:15;;;;;;;22.63;21.23;;;;;;;;;;5054858;28;20560;-79
2023/06/05 07:41:43;;;;;;;23.17;21.80;;;;;;;;;;5057179;28;20531;-78
2023/06/05 07:44:11;;;;;;;23.43;21.87;;;;;;;;;;5056206;28;20452;-77
2023/06/05 07:46:38;;;;;;;23.37;21.80;;;;;;;;;;5056957;28;20856;-81
2023/06/05 07:49:05;;;;;;;22.07;20.73;;;;;;;;;;5057457;28;20438;-83
2023/06/05 07:51:35;;;;;;;23.10;21.80;;;;;;;;;;5058164;28;21073;-82
2023/06/05 07:54:03;;;;;;;23.77;22.27;;;;;;;;;;5066158;28;20870;-85
2023/06/05 07:56:31;;;;;;;23.07;21.57;;;;;;;;;;5076045;28;20450;-86
2023/06/05 07:59:00;;;;;;;23.47;22.00;;;;;;;;;;5077230;28;20456;-86
2023/06/05 08:01:27;;;;;;;24.00;22.50;;;;;;;;;;5074497;28;20480;-76
2023/06/05 08:03:54;;;;;;;23.23;21.73;;;;;;;;;;5074258;28;20462;-76
2023/06/05 08:06:21;;;;;;;23.27;21.67;;;;;;;;;;5074060;28;20422;-76
2023/06/05 08:08:48;;;;;;;23.90;22.13;;;;;;;;;;5074057;28;20468;-77
2023/06/05 08:11:15;;;;;;;23.97;22.13;;;;;;;;;;5074517;28;20559;-76
2023/06/05 08:13:42;;;;;;;23.23;21.83;;;;;;;;;;5074307;28;20447;-76
2023/06/05 08:16:10;;;;;;;23.77;22.47;;;;;;;;;;5072899;28;20858;-76
2023/06/05 08:18:43;;;;;;;23.00;21.60;;;;;;;;;;5074853;28;20503;-81
2023/06/05 08:21:11;;;;;;;24.37;22.80;;;;;;;;;;5075711;28;20508;-83
2023/06/05 08:23:38;;;;;;;22.70;21.30;;;;;;;;;;5075916;28;20550;-81
2023/06/05 08:26:10;;;;;;;23.37;21.80;;;;;;;;;;5076984;28;20452;-85
2023/06/05 08:28:37;;;;;;;23.10;21.60;;;;;;;;;;5079339;28;20456;-87
2023/06/05 08:31:05;;;;;;;24.10;22.43;;;;;;;;;;5079005;28;20484;-87
2023/06/05 08:33:34;;;;;;;26.83;22.53;;;;;;;;;;5077963;28;20520;-84
2023/06/05 08:36:01;;;;;;;23.93;22.23;;;;;;;;;;5076023;28;20457;-83
2023/06/05 08:38:28;;;;;;;23.10;21.57;;;;;;;;;;5075974;28;20517;-81
2023/06/05 08:40:58;;;;;;;23.20;21.77;;;;;;;;;;5078032;28;20472;-80
2023/06/05 08:43:25;;;;;;;23.43;21.93;;;;;;;;;;5079066;28;20439;-82
2023/06/05 08:45:53;;;;;;;23.50;22.00;;;;;;;;;;5075867;28;20449;-77
2023/06/05 08:48:21;;;;;;;24.10;22.40;;;;;;;;;;5074755;28;20447;-78
2023/06/05 08:50:49;;;;;;;24.57;22.90;;;;;;;;;;5073351;28;20487;-80
2023/06/05 08:53:17;;;;;;;24.70;22.80;;;;;;;;;;5074720;28;20455;-77
2023/06/05 08:55:45;;;;;;;23.60;22.00;;;;;;;;;;5073814;28;20852;-77
2023/06/05 08:58:13;;;;;;;23.80;22.30;;;;;;;;;;5074523;28;20442;-77
2023/06/05 09:00:40;;;;;;;23.90;22.40;;;;;;;;;;5074109;28;20969;-77
2023/06/05 09:03:07;;;;;;;25.20;23.20;;;;;;;;;;5074050;28;20449;-78
2023/06/05 09:05:35;;;;;;;24.17;22.37;;;;;;;;;;5072703;28;20461;-78
2023/06/05 09:08:03;;;;;;;23.83;22.33;;;;;;;;;;5073044;28;20461;-79
2023/06/05 09:10:30;;;;;;;23.77;22.37;;;;;;;;;;5073507;28;20509;-78
2023/06/05 09:12:58;;;;;;;24.00;22.50;;;;;;;;;;5073829;28;20625;-80
2023/06/05 09:15:26;;;;;;;24.37;22.67;;;;;;;;;;5074377;28;20480;-77
2023/06/05 09:18:03;;;;;;;23.63;22.23;;;;;;;;;;5072880;28;20516;-77
2023/06/05 09:20:34;;;;;;;25.10;22.90;;;;;;;;;;5074498;28;20480;-77
2023/06/05 09:23:02;;;;;;;23.07;21.47;;;;;;;;;;5073326;28;20442;-77
2023/06/05 09:25:32;;;;;;;24.03;22.50;;;;;;;;;;5073723;28;20486;-77
2023/06/05 09:28:10;;;;;;;23.60;22.10;;;;;;;;;;5078338;28;20544;-85
2023/06/05 09:30:54;;;;;;;23.40;22.00;;;;;;;;;;5074693;28;20481;-76
2023/06/05 09:33:21;;;;;;;23.63;22.10;;;;;;;;;;5073873;28;20441;-77
2023/06/05 09:35:48;;;;;;;24.60;22.70;;;;;;;;;;5074611;28;20458;-81
2023/06/05 09:38:27;;;;;;;24.67;23.17;;;;;;;;;;5073500;28;20475;-80
2023/06/05 09:40:53;;;;;;;27.60;25.50;;;;;;;;;;5076625;28;20556;-84
2023/06/05 09:43:23;;;;;;;25.40;23.57;;;;;;;;;;5077214;28;20449;-88
2023/06/05 09:45:50;;;;;;;25.37;23.80;;;;;;;;;;5075328;28;20832;-88
2023/06/05 09:48:17;;;;;;;25.80;24.03;;;;;;;;;;5074913;28;20488;-79
2023/06/05 09:50:44;;;;;;;25.30;23.70;;;;;;;;;;5073468;28;20476;-78
2023/06/05 09:53:12;;;;;;;24.77;22.87;;;;;;;;;;5073956;28;20453;-77
2023/06/05 09:55:39;;;;;;;26.13;24.53;;;;;;;;;;5073587;28;20933;-79
2023/06/05 09:58:13;;;;;;;25.20;23.50;;;;;;;;;;5074401;28;20973;-79
2023/06/05 10:00:42;;;;;;;24.57;22.87;;;;;;;;;;5074476;28;20829;-80
2023/06/05 10:03:10;;;;;;;25.67;23.77;;;;;;;;;;5074866;28;20445;-79
2023/06/05 10:05:39;;;;;;;25.93;24.13;;;;;;;;;;5074897;28;20457;-81
2023/06/05 10:08:06;;;;;;;26.00;24.20;;;;;;;;;;5073721;28;20450;-77
2023/06/05 10:10:33;;;;;;;25.03;23.43;;;;;;;;;;5073531;28;20530;-77
2023/06/05 10:13:01;;;;;;;25.00;23.20;;;;;;;;;;5073187;28;20487;-80
2023/06/05 10:15:29;;;;;;;25.27;23.67;;;;;;;;;;5074328;28;20449;-83
2023/06/05 10:17:57;;;;;;;24.47;22.63;;;;;;;;;;5074778;28;20446;-83
2023/06/05 10:20:24;;;;;;;25.93;24.00;;;;;;;;;;5079131;28;20492;-82
2023/06/05 10:22:52;;;;;;;25.00;23.27;;;;;;;;;;5080766;28;20446;-81
2023/06/05 10:25:20;;;;;;;25.17;23.47;;;;;;;;;;5080711;28;20795;-81
2023/06/05 10:27:55;;;;;;;24.77;23.20;;;;;;;;;;5079613;28;20547;-80
2023/06/05 10:30:51;;;;;;;24.97;23.27;;;;;;;;;;5080798;28;20607;-80
2023/06/05 10:33:35;;;;;;;24.87;23.23;;;;;;;;;;5079422;28;20434;-80
2023/06/05 10:36:09;;;;;;;25.07;23.50;;;;;;;;;;5078552;28;20489;-84
2023/06/05 10:38:36;;;;;;;25.00;23.23;;;;;;;;;;5057551;28;20816;-75
2023/06/05 10:41:05;;;;;;;26.60;24.10;;;;;;;;;;5061374;28;20470;-87
2023/06/05 10:43:33;;;;;;;26.57;24.63;;;;;;;;;;5060480;28;20457;-86
2023/06/05 10:46:02;;;;;;;25.27;23.80;;;;;;;;;;5058289;28;20946;-77
2023/06/05 10:48:48;;;;;;;25.17;23.47;;;;;;;;;;5056997;28;20451;-79
2023/06/05 10:51:37;;;;;;;24.97;23.47;;;;;;;;;;5057485;28;20535;-78
2023/06/05 10:54:04;;;;;;;25.63;23.97;;;;;;;;;;5060429;28;20439;-84
2023/06/05 10:56:50;;;;;;;25.03;23.40;;;;;;;;;;5058949;28;20442;-84
2023/06/05 10:59:23;;;;;;;23.43;21.87;;;;;;;;;;5060126;28;20454;-86
2023/06/05 11:02:05;;;;;;;24.80;23.30;;;;;;;;;;5059222;28;21025;-83
2023/06/05 11:05:04;;;;;;;24.67;22.93;;;;;;;;;;5058286;28;20454;-83
2023/06/05 11:07:33;;;;;;;23.83;22.33;;;;;;;;;;5058079;28;20460;-79
2023/06/05 11:10:07;;;;;;;23.03;21.63;;;;;;;;;;5055992;28;20474;-76
2023/06/05 11:12:52;;;;;;;24.83;23.23;;;;;;;;;;5057653;28;20494;-82
2023/06/05 11:15:36;;;;;;;24.30;22.80;;;;;;;;;;5057869;28;20446;-82
2023/06/05 11:18:19;;;;;;;24.80;23.20;;;;;;;;;;5056740;28;20427;-78
2023/06/05 11:20:52;;;;;;;24.57;22.90;;;;;;;;;;5056956;28;20485;-80
2023/06/05 11:23:21;;;;;;;24.50;23.00;;;;;;;;;;5057437;28;20446;-77
2023/06/05 11:25:50;;;;;;;23.57;22.17;;;;;;;;;;5056512;28;20533;-78
2023/06/05 11:28:37;;;;;;;23.43;22.03;;;;;;;;;;5056785;28;20489;-79
2023/06/05 11:31:04;;;;;;;24.53;22.83;;;;;;;;;;5055248;28;20533;-78
2023/06/05 11:33:32;;;;;;;23.60;22.07;;;;;;;;;;5056794;28;20475;-86
2023/06/05 11:36:01;;;;;;;25.00;23.10;;;;;;;;;;5054816;28;20437;-76
2023/06/05 11:38:29;;;;;;;24.17;22.47;;;;;;;;;;5055476;28;20467;-76
2023/06/05 11:40:57;;;;;;;24.87;23.23;;;;;;;;;;5056127;28;20500;-76
2023/06/05 11:43:24;;;;;;;24.37;22.87;;;;;;;;;;5055588;28;20433;-78
2023/06/05 11:45:51;;;;;;;25.50;23.90;;;;;;;;;;5055532;28;20481;-86
2023/06/05 11:48:18;;;;;;;24.27;22.60;;;;;;;;;;5057501;28;20463;-81
2023/06/05 11:50:53;;;;;;;24.17;22.77;;;;;;;;;;5056679;28;20593;-81
2023/06/05 11:53:21;;;;;;;24.30;22.70;;;;;;;;;;5057060;28;20850;-86
2023/06/05 11:56:06;;;;;;;25.43;23.50;;;;;;;;;;5055721;28;20450;-81
2023/06/05 11:58:35;;;;;;;25.30;23.43;;;;;;;;;;5056378;28;20983;-82
2023/06/05 12:01:07;;;;;;;24.10;22.60;;;;;;;;;;5055756;28;20519;-80
2023/06/05 12:03:35;;;;;;;23.57;21.97;;;;;;;;;;5056143;28;20421;-82
2023/06/05 12:06:03;;;;;;;24.50;22.80;;;;;;;;;;5056237;28;20454;-84
2023/06/05 12:08:32;;;;;;;24.80;23.20;;;;;;;;;;5056560;28;20515;-87
2023/06/05 12:11:00;;;;;;;24.70;23.00;;;;;;;;;;5056289;28;20513;-81
2023/06/05 12:13:47;;;;;;;23.67;22.10;;;;;;;;;;5059517;28;20486;-80
2023/06/05 12:16:14;;;;;;;22.90;21.50;;;;;;;;;;5082718;28;20857;-81
2023/06/05 12:18:42;;;;;;;25.20;23.50;;;;;;;;;;5076536;28;20432;-81
2023/06/05 12:21:20;;;;;;;25.50;23.90;;;;;;;;;;5076466;28;20973;-80
2023/06/05 12:23:47;;;;;;;23.03;21.63;;;;;;;;;;5075836;28;20462;-79
2023/06/05 12:26:16;;;;;;;23.23;21.83;;;;;;;;;;5078360;28;20519;-81
2023/06/05 12:28:43;;;;;;;23.60;22.20;;;;;;;;;;5076157;28;20450;-81
2023/06/05 12:31:11;;;;;;;23.70;22.20;;;;;;;;;;5075672;28;20845;-82
2023/06/05 12:33:47;;;;;;;23.60;22.20;;;;;;;;;;5075608;28;20546;-82
2023/06/05 12:36:14;;;;;;;24.70;23.10;;;;;;;;;;5075182;28;20442;-82
2023/06/05 12:38:42;;;;;;;24.43;22.90;;;;;;;;;;5075778;28;20804;-82
2023/06/05 12:41:09;;;;;;;25.10;23.60;;;;;;;;;;5075665;28;20521;-82
2023/06/05 12:43:38;;;;;;;25.30;23.80;;;;;;;;;;5074868;28;20462;-82
2023/06/05 12:46:05;;;;;;;24.97;23.27;;;;;;;;;;5074924;28;20449;-82
2023/06/05 12:48:33;;;;;;;25.30;23.80;;;;;;;;;;5075232;28;20962;-82
2023/06/05 12:51:00;;;;;;;24.47;22.87;;;;;;;;;;5075884;28;20807;-82
2023/06/05 12:53:27;;;;;;;24.80;23.30;;;;;;;;;;5075440;28;20464;-82
2023/06/05 12:55:54;;;;;;;24.40;22.80;;;;;;;;;;5076709;28;20825;-80
2023/06/05 12:58:21;;;;;;;24.90;23.50;;;;;;;;;;5083270;28;20452;-80
2023/06/05 13:00:50;;;;;;;24.33;22.60;;;;;;;;;;5090510;28;20495;-83
2023/06/05 13:03:17;;;;;;;25.00;23.60;;;;;;;;;;5077489;28;20446;-84
2023/06/05 13:05:44;;;;;;;24.27;22.67;;;;;;;;;;5076531;28;20461;-84
2023/06/05 13:08:11;;;;;;;24.87;23.20;;;;;;;;;;5076782;28;20427;-83
2023/06/05 13:10:38;;;;;;;24.10;22.60;;;;;;;;;;5077084;28;20444;-83
2023/06/05 13:13:06;;;;;;;24.57;22.93;;;;;;;;;;5076668;28;20584;-83
2023/06/05 13:15:33;;;;;;;24.57;22.97;;;;;;;;;;5076262;28;20525;-90
2023/06/05 13:18:03;;;;;;;24.63;23.13;;;;;;;;;;5077734;28;20856;-85
2023/06/05 13:20:30;;;;;;;24.27;22.70;;;;;;;;;;5078854;28;20477;-85
2023/06/05 13:22:57;;;;;;;24.07;22.50;;;;;;;;;;5078450;28;20428;-86
2023/06/05 13:25:24;;;;;;;24.57;22.87;;;;;;;;;;5077611;28;20490;-82
2023/06/05 13:27:52;;;;;;;23.60;21.80;;;;;;;;;;5078472;28;20519;-84
2023/06/05 13:30:19;;;;;;;23.87;22.37;;;;;;;;;;5078441;28;20450;-83
2023/06/05 13:32:46;;;;;;;25.07;23.50;;;;;;;;;;5078795;28;20452;-84
2023/06/05 13:35:15;;;;;;;24.40;22.70;;;;;;;;;;5078822;28;20446;-83
2023/06/05 13:37:42;;;;;;;23.67;22.07;;;;;;;;;;5078980;28;20561;-82
2023/06/05 13:40:10;;;;;;;24.20;22.50;;;;;;;;;;5094685;28;20466;-83
2023/06/05 13:42:37;;;;;;;24.33;22.70;;;;;;;;;;5095567;28;20480;-82
2023/06/05 13:45:04;;;;;;;23.67;22.27;;;;;;;;;;5091766;28;20495;-84
2023/06/05 13:47:31;;;;;;;23.87;22.37;;;;;;;;;;5079930;28;20444;-84
2023/06/05 13:50:00;;;;;;;23.67;22.07;;;;;;;;;;5080261;28;20448;-84
2023/06/05 13:52:28;;;;;;;24.40;22.83;;;;;;;;;;5080006;28;20452;-84
2023/06/05 13:54:55;;;;;;;24.10;22.50;;;;;;;;;;5084755;28;20424;-84
2023/06/05 13:57:22;;;;;;;23.80;22.30;;;;;;;;;;5085852;28;21203;-83
2023/06/05 13:59:49;;;;;;;24.07;22.57;;;;;;;;;;5085740;28;20798;-83
2023/06/05 14:02:16;;;;;;;24.33;22.70;;;;;;;;;;5086080;28;20420;-84
2023/06/05 14:04:43;;;;;;;25.07;23.13;;;;;;;;;;5085414;28;20751;-88
2023/06/05 14:07:10;;;;;;;25.00;23.30;;;;;;;;;;5084905;28;20412;-84
2023/06/05 14:09:38;;;;;;;24.70;23.00;;;;;;;;;;5087325;28;20532;-88
2023/06/05 14:12:06;;;;;;;24.23;22.73;;;;;;;;;;5087115;28;20466;-87
2023/06/05 14:14:33;;;;;;;24.77;23.10;;;;;;;;;;5085815;28;20454;-85
2023/06/05 14:17:00;;;;;;;24.57;23.17;;;;;;;;;;5085266;28;20446;-84
2023/06/05 14:19:26;;;;;;;26.37;24.30;;;;;;;;;;5085910;28;20631;-80
2023/06/05 14:21:53;;;;;;;25.17;23.40;;;;;;;;;;5087217;28;20471;-85
2023/06/05 14:24:21;;;;;;;25.77;23.87;;;;;;;;;;5085285;28;20472;-87